Time;durP1;ratioP1;P1;durP2;ratioP2;P2;SDS_P1;SDS_P2;PMS_P1;PMS_P2;Temp;Humidity;BMP_temperature;BMP_pressure;BME280_temperature;BME280_humidity;BME280_pressure;Samples;Min_cycle;Max_cycle;Signal;HPM_P1;HPM_P2
2021/11/15 00:02:21;;;;;;;29.70;19.67;;;11.30;99.90;;;;;;5046304;28;20139;-63
2021/11/15 00:04:48;;;;;;;25.90;18.65;;;11.30;99.90;;;;;;5017452;28;20053;-63
2021/11/15 00:07:15;;;;;;;24.77;17.55;;;11.30;99.90;;;;;;5036272;28;20041;-66
2021/11/15 00:09:42;;;;;;;26.05;17.85;;;11.30;99.90;;;;;;5023036;28;20053;-64
2021/11/15 00:12:11;;;;;;;25.15;17.70;;;11.30;99.90;;;;;;5047001;28;20052;-63
2021/11/15 00:14:38;;;;;;;28.45;19.48;;;11.30;99.90;;;;;;5047966;28;20048;-63
2021/11/15 00:17:05;;;;;;;27.45;18.85;;;11.30;99.90;;;;;;5047192;28;20060;-63
2021/11/15 00:19:32;;;;;;;24.55;18.00;;;11.30;99.90;;;;;;5041648;28;20106;-63
2021/11/15 00:21:59;;;;;;;30.35;17.98;;;11.20;99.90;;;;;;5049711;28;20085;-64
2021/11/15 00:24:26;;;;;;;25.88;17.95;;;11.30;99.90;;;;;;5021839;28;20128;-63
2021/11/15 00:26:53;;;;;;;29.90;19.63;;;11.20;99.90;;;;;;5045719;28;20052;-64
2021/11/15 00:29:20;;;;;;;27.73;18.88;;;11.20;99.90;;;;;;5030095;28;20049;-62
2021/11/15 00:31:47;;;;;;;23.42;18.55;;;11.20;99.90;;;;;;5035813;28;20068;-64
2021/11/15 00:34:14;;;;;;;30.35;21.20;;;11.20;99.90;;;;;;5047876;28;20168;-64
2021/11/15 00:36:42;;;;;;;21.63;16.58;;;11.20;99.90;;;;;;5048317;28;20067;-66
2021/11/15 00:39:09;;;;;;;29.35;19.90;;;11.30;99.90;;;;;;5060736;28;20059;-66
2021/11/15 00:41:36;;;;;;;26.02;18.70;;;11.20;99.90;;;;;;5052348;28;20126;-65
2021/11/15 00:44:03;;;;;;;26.40;17.23;;;11.20;99.90;;;;;;5038855;28;20052;-65
2021/11/15 00:46:30;;;;;;;25.95;18.98;;;11.30;99.90;;;;;;5037184;28;20045;-65
2021/11/15 00:48:57;;;;;;;30.15;20.35;;;11.20;99.90;;;;;;5053034;28;20097;-64
2021/11/15 00:51:28;;;;;;;27.40;17.20;;;11.20;99.90;;;;;;5051318;28;20053;-64
2021/11/15 00:53:56;;;;;;;24.55;17.90;;;11.20;99.90;;;;;;5041906;28;20045;-67
2021/11/15 00:56:23;;;;;;;22.48;16.38;;;11.20;99.90;;;;;;5037799;28;20053;-63
2021/11/15 00:58:50;;;;;;;23.30;18.20;;;11.20;99.90;;;;;;5043875;28;20057;-63
2021/11/15 01:01:17;;;;;;;25.27;18.17;;;11.20;99.90;;;;;;5038204;28;20408;-63
2021/11/15 01:03:44;;;;;;;25.45;16.80;;;11.30;99.90;;;;;;5033796;28;20045;-63
2021/11/15 01:06:11;;;;;;;22.95;15.70;;;11.30;99.90;;;;;;5050587;28;20340;-63
2021/11/15 01:08:38;;;;;;;24.58;16.73;;;11.30;99.90;;;;;;5032837;28;20144;-64
2021/11/15 01:11:06;;;;;;;23.10;15.55;;;11.30;99.90;;;;;;5043378;28;20053;-63
2021/11/15 01:13:32;;;;;;;24.42;17.45;;;11.20;99.90;;;;;;5053046;28;20060;-63
2021/11/15 01:16:00;;;;;;;26.08;17.02;;;11.30;99.90;;;;;;5051474;28;20083;-64
2021/11/15 01:18:27;;;;;;;20.08;14.68;;;11.30;99.90;;;;;;5061197;28;20088;-63
2021/11/15 01:20:54;;;;;;;21.98;15.32;;;11.30;99.90;;;;;;5043541;28;20053;-64
2021/11/15 01:23:21;;;;;;;20.05;14.10;;;11.30;99.90;;;;;;5041646;28;20052;-63
2021/11/15 01:25:47;;;;;;;20.60;14.05;;;11.30;99.90;;;;;;5028659;28;20089;-62
2021/11/15 01:28:15;;;;;;;23.15;14.32;;;11.30;99.90;;;;;;5049146;28;20132;-66
2021/11/15 01:30:42;;;;;;;27.77;16.10;;;11.30;99.90;;;;;;5039042;28;20056;-64
2021/11/15 01:33:09;;;;;;;19.83;13.57;;;11.20;99.90;;;;;;5041273;28;20127;-64
2021/11/15 01:35:36;;;;;;;21.83;13.20;;;11.20;99.90;;;;;;5035551;28;20120;-64
2021/11/15 01:38:03;;;;;;;19.08;12.75;;;11.20;99.90;;;;;;5026858;28;20049;-63
2021/11/15 01:40:31;;;;;;;19.23;12.90;;;11.20;99.90;;;;;;5047582;28;20041;-63
2021/11/15 01:42:58;;;;;;;24.27;13.50;;;11.20;99.90;;;;;;5045493;28;20049;-65
2021/11/15 01:45:26;;;;;;;17.98;13.52;;;11.20;99.90;;;;;;5056788;28;20056;-64
2021/11/15 01:47:54;;;;;;;20.00;13.45;;;11.20;99.90;;;;;;5043254;28;20050;-63
2021/11/15 01:50:22;;;;;;;20.83;13.68;;;11.20;99.90;;;;;;5043266;28;20155;-65
2021/11/15 01:52:49;;;;;;;16.88;12.52;;;11.20;99.90;;;;;;5050392;28;20072;-63
2021/11/15 01:55:17;;;;;;;21.27;12.18;;;11.30;99.90;;;;;;5045400;28;20037;-64
2021/11/15 01:57:44;;;;;;;22.20;12.63;;;11.30;99.90;;;;;;5047782;28;20089;-63
2021/11/15 02:00:13;;;;;;;17.48;12.00;;;11.20;99.90;;;;;;5025948;28;20057;-64
2021/11/15 02:02:41;;;;;;;19.17;12.68;;;11.30;99.90;;;;;;5027969;28;20461;-64
2021/11/15 02:05:09;;;;;;;18.40;10.90;;;11.30;99.90;;;;;;5031841;28;20049;-63
2021/11/15 02:07:36;;;;;;;18.77;12.68;;;11.30;99.90;;;;;;5060137;28;20041;-63
2021/11/15 02:10:04;;;;;;;18.42;12.43;;;11.20;99.90;;;;;;5041990;28;20508;-63
2021/11/15 02:12:31;;;;;;;19.35;13.57;;;11.20;99.90;;;;;;5057142;28;20057;-63
2021/11/15 02:14:58;;;;;;;18.00;12.73;;;11.20;99.90;;;;;;5030254;28;20049;-64
2021/11/15 02:17:25;;;;;;;22.80;13.70;;;11.20;99.90;;;;;;5048692;28;20053;-64
2021/11/15 02:19:52;;;;;;;17.95;12.52;;;11.20;99.90;;;;;;5029107;28;20049;-63
2021/11/15 02:22:19;;;;;;;20.77;12.82;;;11.20;99.90;;;;;;5044115;28;20041;-63
2021/11/15 02:24:46;;;;;;;17.85;12.48;;;11.20;99.90;;;;;;5037538;28;20407;-63
2021/11/15 02:27:12;;;;;;;18.77;11.65;;;11.30;99.90;;;;;;5050519;28;20056;-64
2021/11/15 02:29:39;;;;;;;17.02;12.57;;;11.30;99.90;;;;;;5048037;28;20057;-64
2021/11/15 02:32:07;;;;;;;19.52;12.63;;;11.30;99.90;;;;;;5035234;28;20084;-64
2021/11/15 02:34:34;;;;;;;18.33;11.88;;;11.20;99.90;;;;;;5037529;28;20130;-65
2021/11/15 02:37:01;;;;;;;16.67;12.23;;;11.20;99.90;;;;;;5042133;28;20488;-63
2021/11/15 02:39:28;;;;;;;16.13;11.32;;;11.20;99.90;;;;;;5044423;28;20045;-63
2021/11/15 02:41:55;;;;;;;18.40;13.85;;;11.20;99.90;;;;;;5051088;28;20100;-64
2021/11/15 02:44:22;;;;;;;21.73;13.55;;;11.20;99.90;;;;;;5053285;28;20457;-63
2021/11/15 02:46:51;;;;;;;18.67;13.43;;;11.20;99.90;;;;;;5031042;28;20504;-63
2021/11/15 02:49:18;;;;;;;19.10;14.23;;;11.20;99.90;;;;;;5046253;28;20080;-63
2021/11/15 02:51:45;;;;;;;18.83;13.07;;;11.20;99.90;;;;;;5049650;28;20060;-65
2021/11/15 02:54:12;;;;;;;21.38;12.88;;;11.20;99.90;;;;;;5047343;28;20037;-63
2021/11/15 02:56:40;;;;;;;17.95;11.68;;;11.20;99.90;;;;;;5027971;28;20037;-63
2021/11/15 02:59:07;;;;;;;16.92;12.45;;;11.20;99.90;;;;;;5029475;28;20049;-63
2021/11/15 03:01:34;;;;;;;17.83;12.38;;;11.10;99.90;;;;;;5033196;28;20159;-64
2021/11/15 03:04:01;;;;;;;18.92;12.23;;;11.10;99.90;;;;;;5030220;28;20044;-64
2021/11/15 03:06:28;;;;;;;16.50;11.88;;;11.10;99.90;;;;;;5043974;28;20113;-64
2021/11/15 03:08:55;;;;;;;19.73;12.45;;;11.20;99.90;;;;;;5042524;28;20095;-64
2021/11/15 03:11:22;;;;;;;18.67;12.68;;;11.10;99.90;;;;;;5046849;28;20542;-63
2021/11/15 03:13:49;;;;;;;17.00;12.27;;;11.10;99.90;;;;;;5038892;28;20041;-63
2021/11/15 03:16:16;;;;;;;16.75;11.60;;;11.10;99.90;;;;;;5045368;28;20431;-64
2021/11/15 03:18:44;;;;;;;20.98;12.43;;;11.10;99.90;;;;;;5048362;28;20083;-63
2021/11/15 03:21:14;;;;;;;20.27;13.07;;;11.10;99.90;;;;;;5015332;28;20056;-63
2021/11/15 03:23:43;;;;;;;17.00;12.20;;;11.10;99.90;;;;;;5048696;28;20101;-66
2021/11/15 03:26:10;;;;;;;18.02;12.65;;;11.10;99.90;;;;;;5030570;28;20045;-63
2021/11/15 03:28:40;;;;;;;15.27;11.43;;;11.10;99.90;;;;;;5030472;28;20374;-63
2021/11/15 03:31:18;;;;;;;19.58;11.50;;;11.10;99.90;;;;;;5038430;28;20037;-64
2021/11/15 03:33:46;;;;;;;18.65;12.18;;;11.10;99.90;;;;;;5030004;28;20123;-68
2021/11/15 03:36:13;;;;;;;20.73;13.82;;;11.10;99.90;;;;;;5028264;28;20513;-66
2021/11/15 03:38:40;;;;;;;17.13;12.93;;;11.10;99.90;;;;;;5026572;28;20431;-63
2021/11/15 03:41:07;;;;;;;17.45;12.32;;;11.10;99.90;;;;;;5044741;28;20072;-63
2021/11/15 03:43:35;;;;;;;16.42;11.10;;;11.10;99.90;;;;;;5045138;28;20068;-65
2021/11/15 03:46:02;;;;;;;16.33;11.43;;;11.10;99.90;;;;;;5058774;28;20095;-64
2021/11/15 03:48:30;;;;;;;20.65;11.70;;;11.10;99.90;;;;;;5033749;28;20137;-63
2021/11/15 03:50:57;;;;;;;21.58;11.93;;;11.00;99.90;;;;;;5046127;28;20048;-63
2021/11/15 03:53:26;;;;;;;17.00;11.88;;;11.10;99.90;;;;;;5047456;28;20049;-64
2021/11/15 03:55:53;;;;;;;20.63;11.93;;;11.00;99.90;;;;;;5045181;28;20045;-63
2021/11/15 03:58:20;;;;;;;18.25;11.55;;;11.10;99.90;;;;;;5040141;28;20053;-63
2021/11/15 04:00:47;;;;;;;17.70;11.90;;;11.10;99.90;;;;;;5046053;28;20064;-63
2021/11/15 04:03:17;;;;;;;15.65;10.95;;;11.00;99.90;;;;;;5048355;28;20484;-63
2021/11/15 04:05:54;;;;;;;17.80;11.15;;;11.00;99.90;;;;;;5042818;28;20052;-64
2021/11/15 04:08:21;;;;;;;16.88;11.77;;;11.00;99.90;;;;;;5041272;28;20068;-63
2021/11/15 04:10:48;;;;;;;15.27;11.40;;;11.00;99.90;;;;;;5030269;28;20036;-64
2021/11/15 04:13:37;;;;;;;17.77;12.10;;;11.00;99.90;;;;;;5054571;28;20130;-65
2021/11/15 04:16:09;;;;;;;12.80;10.15;;;11.00;99.90;;;;;;5039633;28;20049;-63
2021/11/15 04:18:38;;;;;;;19.23;11.02;;;11.00;99.90;;;;;;5035186;28;20485;-64
2021/11/15 04:21:06;;;;;;;14.63;11.48;;;11.00;99.90;;;;;;5039481;28;20041;-64
2021/11/15 04:23:34;;;;;;;16.95;11.25;;;11.00;99.90;;;;;;5051519;28;20060;-63
2021/11/15 04:26:01;;;;;;;14.82;10.65;;;11.00;99.90;;;;;;5040368;28;20270;-63
2021/11/15 04:28:28;;;;;;;16.35;12.15;;;11.00;99.90;;;;;;5034209;28;20501;-63
2021/11/15 04:30:55;;;;;;;17.00;11.13;;;11.00;99.90;;;;;;5021403;28;20522;-63
2021/11/15 04:33:23;;;;;;;14.75;11.07;;;11.00;99.90;;;;;;5034050;28;20127;-63
2021/11/15 04:35:51;;;;;;;18.77;11.40;;;11.00;99.90;;;;;;5045106;28;20496;-63
2021/11/15 04:38:18;;;;;;;16.73;11.23;;;11.00;99.90;;;;;;5032994;28;20052;-63
2021/11/15 04:40:45;;;;;;;14.23;10.25;;;11.00;99.90;;;;;;5032741;28;20070;-64
2021/11/15 04:43:12;;;;;;;17.92;11.48;;;11.00;99.90;;;;;;5043888;28;20427;-63
2021/11/15 04:45:39;;;;;;;14.68;10.93;;;10.90;99.90;;;;;;5050707;28;20053;-63
2021/11/15 04:48:06;;;;;;;17.15;10.57;;;10.90;99.90;;;;;;5052296;28;20045;-63
2021/11/15 04:50:33;;;;;;;20.55;11.32;;;10.90;99.90;;;;;;5042005;28;20060;-65
2021/11/15 04:53:01;;;;;;;22.90;12.43;;;10.90;99.90;;;;;;5040303;28;20068;-66
2021/11/15 04:55:28;;;;;;;15.02;11.10;;;10.90;99.90;;;;;;5032733;28;20057;-65
2021/11/15 04:57:55;;;;;;;16.27;11.10;;;10.90;99.90;;;;;;5032996;28;20105;-65
2021/11/15 05:00:29;;;;;;;12.93;10.45;;;10.90;99.90;;;;;;5050061;28;20833;-63
2021/11/15 05:02:56;;;;;;;14.43;10.05;;;11.00;99.90;;;;;;5044562;28;20099;-63
2021/11/15 05:05:23;;;;;;;19.55;12.70;;;11.00;99.90;;;;;;5046438;28;20041;-63
2021/11/15 05:07:53;;;;;;;18.63;11.10;;;11.00;99.90;;;;;;5037648;28;20055;-65
2021/11/15 05:10:22;;;;;;;16.30;10.80;;;10.90;99.90;;;;;;5037321;28;20103;-65
2021/11/15 05:12:49;;;;;;;16.20;11.10;;;10.90;99.90;;;;;;5045657;28;20044;-64
2021/11/15 05:15:19;;;;;;;16.48;11.27;;;10.90;99.90;;;;;;5047439;28;20046;-65
2021/11/15 05:17:47;;;;;;;14.57;11.60;;;10.90;99.90;;;;;;5049800;28;20100;-65
2021/11/15 05:20:15;;;;;;;18.88;11.45;;;10.80;99.90;;;;;;5050536;28;20514;-65
2021/11/15 05:22:42;;;;;;;20.30;12.80;;;10.80;99.90;;;;;;5015753;28;20056;-63
2021/11/15 05:25:09;;;;;;;17.92;12.68;;;10.90;99.90;;;;;;5049035;28;20541;-64
2021/11/15 05:27:36;;;;;;;15.23;10.65;;;10.90;99.90;;;;;;5051304;28;20052;-64
2021/11/15 05:30:04;;;;;;;16.10;10.75;;;10.90;99.90;;;;;;5050036;28;20045;-67
2021/11/15 05:32:31;;;;;;;18.45;11.00;;;10.90;99.90;;;;;;5032854;28;20131;-65
2021/11/15 05:34:58;;;;;;;18.05;12.02;;;10.90;99.90;;;;;;5048450;28;20036;-64
2021/11/15 05:37:25;;;;;;;14.75;10.48;;;10.90;99.90;;;;;;5041383;28;20444;-65
2021/11/15 05:39:52;;;;;;;16.10;10.65;;;10.90;99.90;;;;;;5016428;28;20380;-64
2021/11/15 05:42:19;;;;;;;16.70;11.85;;;10.90;99.90;;;;;;5049524;28;20436;-64
2021/11/15 05:44:46;;;;;;;18.35;11.82;;;10.90;99.90;;;;;;5048475;28;20489;-65
2021/11/15 05:47:13;;;;;;;16.45;10.23;;;10.90;99.90;;;;;;5044568;28;20472;-64
2021/11/15 05:49:40;;;;;;;17.65;12.13;;;10.90;99.90;;;;;;5037032;28;20086;-64
2021/11/15 05:52:08;;;;;;;15.32;11.85;;;10.90;99.90;;;;;;5044943;28;20045;-65
2021/11/15 05:54:35;;;;;;;19.30;11.40;;;10.90;99.90;;;;;;5049812;28;20056;-64
2021/11/15 05:57:03;;;;;;;22.27;12.43;;;10.80;99.90;;;;;;5019792;28;20053;-63
2021/11/15 05:59:31;;;;;;;17.52;11.88;;;10.80;99.90;;;;;;5031488;28;20108;-64
2021/11/15 06:01:57;;;;;;;16.02;10.68;;;10.80;99.90;;;;;;5042382;28;20049;-64
2021/11/15 06:04:24;;;;;;;15.00;11.02;;;10.80;99.90;;;;;;5067479;28;20049;-65
2021/11/15 06:06:52;;;;;;;20.65;13.13;;;10.80;99.90;;;;;;5033164;28;20079;-62
2021/11/15 06:09:19;;;;;;;20.42;11.90;;;10.90;99.90;;;;;;5044880;28;20075;-62
2021/11/15 06:11:46;;;;;;;16.17;11.70;;;10.90;99.90;;;;;;5056433;28;20044;-65
2021/11/15 06:14:13;;;;;;;14.00;10.82;;;10.80;99.90;;;;;;5047282;28;20052;-63
2021/11/15 06:16:40;;;;;;;13.70;10.88;;;10.80;99.90;;;;;;5039449;28;20083;-63
2021/11/15 06:19:07;;;;;;;16.85;10.32;;;10.80;99.90;;;;;;5044641;28;20068;-63
2021/11/15 06:21:34;;;;;;;18.92;12.40;;;10.80;99.90;;;;;;5047478;28;20041;-67
2021/11/15 06:24:02;;;;;;;16.45;11.27;;;10.80;99.90;;;;;;5042947;28;20126;-63
2021/11/15 06:26:29;;;;;;;16.60;11.63;;;10.80;99.90;;;;;;5033382;28;20083;-63
2021/11/15 06:28:56;;;;;;;16.50;11.00;;;10.80;99.90;;;;;;5037141;28;20129;-63
2021/11/15 06:31:23;;;;;;;16.70;11.60;;;10.80;99.90;;;;;;5064279;28;20056;-64
2021/11/15 06:33:51;;;;;;;14.27;11.20;;;10.80;99.90;;;;;;5050262;28;20049;-64
2021/11/15 06:36:22;;;;;;;15.43;10.93;;;10.80;99.90;;;;;;5044371;28;20056;-63
2021/11/15 06:38:58;;;;;;;19.10;11.98;;;10.80;99.90;;;;;;5046538;28;20063;-63
2021/11/15 06:41:25;;;;;;;19.30;11.45;;;10.80;99.90;;;;;;5035749;28;20081;-67
2021/11/15 06:43:52;;;;;;;111.25;75.45;;;10.70;99.90;;;;;;5053226;28;20055;-68
2021/11/15 06:46:23;;;;;;;58.00;42.13;;;10.80;99.90;;;;;;5032707;28;20111;-67
2021/11/15 06:48:50;;;;;;;68.38;51.20;;;10.80;99.90;;;;;;5047525;28;20090;-66
2021/11/15 06:51:34;;;;;;;25.88;20.08;;;10.80;99.90;;;;;;5042132;28;20057;-67
2021/11/15 06:54:01;;;;;;;19.52;13.27;;;10.80;99.90;;;;;;5037245;28;20049;-64
2021/11/15 06:56:28;;;;;;;20.40;13.70;;;10.80;99.90;;;;;;5048146;28;20057;-71
2021/11/15 06:58:55;;;;;;;16.08;12.52;;;10.80;99.90;;;;;;5046678;28;20056;-67
2021/11/15 07:01:22;;;;;;;17.90;12.43;;;10.80;99.90;;;;;;5041537;28;20056;-64
2021/11/15 07:03:49;;;;;;;17.02;12.10;;;10.80;99.90;;;;;;5044233;28;20454;-64
2021/11/15 07:06:16;;;;;;;14.50;11.38;;;10.80;99.90;;;;;;5041531;28;20599;-65
2021/11/15 07:08:47;;;;;;;17.35;11.70;;;10.80;99.90;;;;;;5059450;28;20044;-65
2021/11/15 07:11:14;;;;;;;16.10;11.40;;;10.70;99.90;;;;;;5062591;28;20051;-65
2021/11/15 07:13:41;;;;;;;284.40;215.23;;;10.70;99.90;;;;;;5067215;28;20408;-66
2021/11/15 07:16:08;;;;;;;286.55;202.75;;;10.70;99.90;;;;;;5043927;28;20398;-66
2021/11/15 07:18:35;;;;;;;41.05;27.95;;;10.80;99.90;;;;;;5037405;28;20768;-67
2021/11/15 07:21:02;;;;;;;23.23;16.08;;;10.80;99.90;;;;;;5037960;28;20049;-67
2021/11/15 07:23:29;;;;;;;19.13;12.80;;;10.80;99.90;;;;;;5029311;28;20045;-66
2021/11/15 07:25:56;;;;;;;20.30;12.93;;;10.80;99.90;;;;;;5047983;28;20064;-66
2021/11/15 07:28:23;;;;;;;17.55;11.35;;;10.70;99.90;;;;;;5046576;28;20045;-70
2021/11/15 07:30:54;;;;;;;20.13;11.52;;;10.80;99.90;;;;;;5053264;28;20053;-65
2021/11/15 07:33:25;;;;;;;17.27;12.25;;;10.80;99.90;;;;;;5047956;28;20115;-68
2021/11/15 07:35:52;;;;;;;15.70;11.80;;;10.80;99.90;;;;;;5030238;28;20447;-69
2021/11/15 07:38:19;;;;;;;17.50;10.77;;;10.70;99.90;;;;;;5046518;28;20056;-64
2021/11/15 07:40:46;;;;;;;16.30;11.75;;;10.70;99.90;;;;;;5046444;28;20071;-65
2021/11/15 07:43:14;;;;;;;17.80;11.82;;;10.80;99.90;;;;;;5045659;28;20064;-65
2021/11/15 07:45:41;;;;;;;20.38;13.18;;;10.80;99.90;;;;;;5061262;28;20056;-66
2021/11/15 07:48:08;;;;;;;15.77;11.27;;;10.80;99.90;;;;;;5053119;28;20052;-67
2021/11/15 07:50:36;;;;;;;23.55;12.77;;;10.80;99.90;;;;;;5048626;28;20138;-65
2021/11/15 07:53:03;;;;;;;15.20;11.60;;;10.80;99.90;;;;;;5048716;28;20073;-65
2021/11/15 07:55:30;;;;;;;15.98;11.75;;;10.80;99.90;;;;;;5052926;28;20138;-67
2021/11/15 07:58:01;;;;;;;16.02;10.88;;;10.80;99.90;;;;;;5048621;28;20053;-67
2021/11/15 08:00:28;;;;;;;16.30;12.95;;;10.80;99.90;;;;;;5029732;28;20059;-65
2021/11/15 08:02:55;;;;;;;187.43;167.27;;;10.90;99.90;;;;;;5041205;28;20041;-67
2021/11/15 08:05:23;;;;;;;76.20;64.18;;;10.80;99.90;;;;;;5074492;28;20050;-66
2021/11/15 08:07:50;;;;;;;89.80;72.35;;;10.80;99.90;;;;;;5046722;28;20400;-72
2021/11/15 08:10:18;;;;;;;32.05;25.75;;;10.90;99.90;;;;;;5045682;28;20063;-71
2021/11/15 08:12:46;;;;;;;41.67;31.15;;;10.90;99.90;;;;;;5050246;28;20068;-66
2021/11/15 08:15:14;;;;;;;23.55;16.92;;;10.90;99.90;;;;;;5047327;28;20045;-68
2021/11/15 08:17:43;;;;;;;19.33;14.57;;;11.00;99.90;;;;;;5035114;28;20057;-67
2021/11/15 08:20:15;;;;;;;20.80;13.43;;;11.00;99.90;;;;;;5046019;28;20063;-67
2021/11/15 08:22:47;;;;;;;20.45;13.88;;;11.00;99.90;;;;;;5045739;28;20306;-68
2021/11/15 08:25:26;;;;;;;20.60;12.77;;;11.00;99.90;;;;;;5064149;28;20167;-68
2021/11/15 08:27:54;;;;;;;17.63;11.95;;;11.00;99.90;;;;;;5047698;28;20056;-71
2021/11/15 08:30:21;;;;;;;22.92;13.95;;;11.00;99.90;;;;;;5029786;28;20045;-68
2021/11/15 08:32:48;;;;;;;15.52;11.80;;;11.00;99.90;;;;;;5029006;28;20412;-68
2021/11/15 08:35:15;;;;;;;18.95;11.25;;;11.10;99.90;;;;;;5029131;28;20053;-68
2021/11/15 08:38:08;;;;;;;36.75;26.27;;;11.10;99.90;;;;;;5048256;28;20045;-70
2021/11/15 08:40:35;;;;;;;89.85;63.95;;;11.10;99.90;;;;;;5017855;28;20055;-71
2021/11/15 08:43:03;;;;;;;24.05;17.23;;;11.10;99.90;;;;;;5058627;28;20477;-74
2021/11/15 08:45:30;;;;;;;18.67;13.20;;;11.10;99.90;;;;;;5048194;28;20045;-67
2021/11/15 08:47:58;;;;;;;20.45;12.10;;;11.10;99.90;;;;;;5029936;28;20072;-69
2021/11/15 08:50:25;;;;;;;15.80;10.90;;;11.10;99.90;;;;;;5047492;28;20462;-71
2021/11/15 08:52:51;;;;;;;16.65;12.15;;;11.10;99.90;;;;;;5047677;28;20072;-68
2021/11/15 08:55:18;;;;;;;16.17;11.93;;;11.10;99.90;;;;;;5047263;28;20041;-70
2021/11/15 08:57:47;;;;;;;18.27;12.60;;;11.10;99.90;;;;;;5027500;28;20079;-65
2021/11/15 09:00:14;;;;;;;21.10;12.27;;;11.20;99.90;;;;;;5027722;28;20057;-66
2021/11/15 09:02:42;;;;;;;22.90;13.45;;;11.20;99.90;;;;;;5027548;28;20073;-66
2021/11/15 09:05:09;;;;;;;16.63;12.00;;;11.20;99.90;;;;;;5027891;28;20400;-66
2021/11/15 09:07:37;;;;;;;16.20;11.48;;;11.20;99.90;;;;;;5033898;28;20152;-67
2021/11/15 09:10:13;;;;;;;18.15;12.20;;;11.20;99.90;;;;;;5032309;28;20046;-67
2021/11/15 09:12:41;;;;;;;15.13;12.35;;;11.30;99.90;;;;;;5062234;28;20056;-65
2021/11/15 09:15:10;;;;;;;17.98;12.25;;;11.30;99.90;;;;;;5070845;28;20045;-66
2021/11/15 09:17:38;;;;;;;16.98;12.68;;;11.30;99.90;;;;;;5055211;28;20057;-66
2021/11/15 09:20:06;;;;;;;16.95;11.88;;;11.40;99.90;;;;;;5051571;28;20052;-66
2021/11/15 09:22:34;;;;;;;27.33;19.33;;;11.40;99.90;;;;;;5051076;28;20045;-67
2021/11/15 09:25:01;;;;;;;22.67;14.18;;;11.30;99.90;;;;;;5050518;28;20496;-66
2021/11/15 09:27:28;;;;;;;19.70;12.05;;;11.40;99.90;;;;;;5067694;28;20041;-66
2021/11/15 09:29:56;;;;;;;16.40;11.23;;;11.40;99.90;;;;;;5050820;28;20052;-66
2021/11/15 09:32:26;;;;;;;17.75;12.23;;;11.40;99.90;;;;;;5050803;28;20053;-66
2021/11/15 09:34:53;;;;;;;18.25;11.15;;;11.40;99.90;;;;;;5050014;28;20053;-66
2021/11/15 09:37:21;;;;;;;17.73;11.95;;;11.40;99.90;;;;;;5050519;28;20131;-68
2021/11/15 09:39:48;;;;;;;107.57;86.55;;;11.40;99.90;;;;;;5051529;28;20068;-69
2021/11/15 09:42:16;;;;;;;25.70;16.48;;;11.40;99.90;;;;;;5046166;28;20491;-70
2021/11/15 09:44:43;;;;;;;23.17;13.68;;;11.40;99.90;;;;;;5071249;28;20082;-69
2021/11/15 09:47:11;;;;;;;17.48;12.75;;;11.40;99.90;;;;;;5070383;28;20048;-64
2021/11/15 09:49:38;;;;;;;19.65;12.57;;;11.40;99.90;;;;;;5048558;28;20512;-69
2021/11/15 09:52:06;;;;;;;16.85;12.35;;;11.40;99.90;;;;;;5050384;28;20059;-69
2021/11/15 09:54:33;;;;;;;17.10;11.60;;;11.40;99.90;;;;;;5050264;28;20092;-70
2021/11/15 09:57:00;;;;;;;20.85;12.43;;;11.30;99.90;;;;;;5066765;28;20045;-70
2021/11/15 09:59:30;;;;;;;20.40;12.45;;;11.40;99.90;;;;;;5051869;28;20056;-70
2021/11/15 10:01:57;;;;;;;16.27;11.85;;;11.30;99.90;;;;;;5034621;28;20471;-70
2021/11/15 10:04:25;;;;;;;17.77;12.70;;;11.40;99.90;;;;;;5066803;28;20055;-70
2021/11/15 10:06:56;;;;;;;19.02;12.43;;;11.40;99.90;;;;;;5066678;28;20060;-70
2021/11/15 10:09:27;;;;;;;16.77;12.48;;;11.40;99.90;;;;;;5050183;28;20067;-71
2021/11/15 10:11:54;;;;;;;19.48;13.27;;;11.40;99.90;;;;;;5059106;28;20056;-68
2021/11/15 10:14:22;;;;;;;19.73;14.13;;;11.40;99.90;;;;;;5069891;28;20056;-70
2021/11/15 10:17:01;;;;;;;20.05;13.55;;;11.30;99.90;;;;;;5053268;28;20147;-71
2021/11/15 10:19:29;;;;;;;23.20;14.20;;;11.40;99.90;;;;;;5032605;28;20124;-71
2021/11/15 10:22:06;;;;;;;21.48;14.45;;;11.40;99.90;;;;;;5038855;28;20070;-70
2021/11/15 10:24:35;;;;;;;22.70;14.45;;;11.40;99.90;;;;;;5067805;28;20554;-70
2021/11/15 10:27:16;;;;;;;27.08;19.80;;;11.40;99.90;;;;;;5050833;28;20049;-72
2021/11/15 10:29:45;;;;;;;27.13;16.95;;;11.40;99.90;;;;;;5049738;28;20048;-68
2021/11/15 10:32:17;;;;;;;22.27;15.35;;;11.50;99.90;;;;;;5049826;28;20053;-71
2021/11/15 10:34:49;;;;;;;24.30;16.30;;;11.50;99.90;;;;;;5049402;28;20089;-71
2021/11/15 10:37:18;;;;;;;27.38;17.27;;;11.50;99.90;;;;;;5033281;28;20045;-71
2021/11/15 10:40:16;;;;;;;27.98;18.70;;;11.50;99.90;;;;;;5048804;28;20400;-75
2021/11/15 10:42:48;;;;;;;191.95;150.95;;;11.50;99.90;;;;;;5034278;28;20049;-70
2021/11/15 10:45:19;;;;;;;38.03;25.80;;;11.60;99.90;;;;;;5048786;28;20041;-68
2021/11/15 10:47:54;;;;;;;29.08;19.75;;;11.60;99.80;;;;;;5029644;28;20454;-63
2021/11/15 10:51:12;;;;;;;27.38;18.88;;;11.50;99.90;;;;;;5043806;28;20139;-62
2021/11/15 10:53:43;;;;;;;26.85;18.30;;;11.50;99.90;;;;;;5045862;28;20049;-68
2021/11/15 10:56:16;;;;;;;27.30;18.83;;;11.50;99.90;;;;;;5049617;28;20079;-67
2021/11/15 10:58:45;;;;;;;31.38;19.42;;;11.50;99.90;;;;;;5033467;28;20516;-69
2021/11/15 11:01:13;;;;;;;25.70;17.10;;;11.50;99.90;;;;;;5031909;28;20092;-66
2021/11/15 11:03:41;;;;;;;28.08;18.50;;;11.50;99.90;;;;;;5048757;28;20053;-68
2021/11/15 11:06:12;;;;;;;30.58;20.08;;;11.50;99.90;;;;;;5032595;28;20060;-68
2021/11/15 11:08:49;;;;;;;26.67;17.92;;;11.50;99.90;;;;;;5049361;28;20045;-69
2021/11/15 11:11:25;;;;;;;28.75;19.13;;;11.60;99.90;;;;;;5049012;28;20044;-70
2021/11/15 11:13:59;;;;;;;25.10;17.25;;;11.60;99.90;;;;;;5046546;28;20048;-66
2021/11/15 11:16:44;;;;;;;25.20;18.08;;;11.60;99.90;;;;;;5047063;28;20048;-67
2021/11/15 11:19:20;;;;;;;28.00;19.40;;;11.60;99.90;;;;;;5047315;28;20064;-67
2021/11/15 11:24:57;;;;;;;27.67;18.38;;;11.60;99.90;;;;;;5020522;28;20046;-68
2021/11/15 11:27:26;;;;;;;25.85;18.13;;;11.70;99.90;;;;;;5014944;28;20049;-70
2021/11/15 11:29:53;;;;;;;23.63;16.52;;;11.70;99.90;;;;;;5027503;28;20065;-69
2021/11/15 11:32:22;;;;;;;28.15;17.88;;;11.70;99.70;;;;;;5041268;28;20041;-69
2021/11/15 11:34:49;;;;;;;22.50;16.17;;;11.70;99.60;;;;;;5028107;28;20088;-70
2021/11/15 11:37:18;;;;;;;24.20;16.77;;;11.70;99.40;;;;;;5045868;28;20078;-66
2021/11/15 11:39:46;;;;;;;31.83;19.85;;;11.70;99.70;;;;;;5047234;28;20484;-67
2021/11/15 11:42:15;;;;;;;26.60;18.00;;;11.70;99.50;;;;;;5036999;28;20052;-68
2021/11/15 11:44:42;;;;;;;26.40;18.33;;;11.60;99.20;;;;;;5045369;28;20478;-69
2021/11/15 11:47:11;;;;;;;27.20;18.70;;;11.70;99.90;;;;;;5010663;28;20453;-69
2021/11/15 11:49:38;;;;;;;24.75;17.17;;;11.70;99.90;;;;;;5030467;28;20400;-68
2021/11/15 11:52:07;;;;;;;26.38;19.58;;;11.70;99.80;;;;;;5048090;28;20480;-67
2021/11/15 11:54:40;;;;;;;23.27;16.75;;;11.70;99.90;;;;;;5041746;28;20049;-68
2021/11/15 11:57:20;;;;;;;132.57;92.78;;;11.80;99.90;;;;;;5047808;28;20048;-70
2021/11/15 11:59:47;;;;;;;34.72;24.98;;;11.90;99.90;;;;;;5047483;28;20496;-66
2021/11/15 12:02:20;;;;;;;27.88;19.15;;;11.90;99.40;;;;;;5049236;28;20459;-67
2021/11/15 12:04:50;;;;;;;25.80;18.10;;;11.90;99.70;;;;;;5028790;28;20059;-77
2021/11/15 12:07:24;;;;;;;26.55;18.73;;;11.90;99.90;;;;;;5019564;28;20044;-68
2021/11/15 12:09:52;;;;;;;26.35;18.30;;;11.90;98.80;;;;;;5048085;28;20044;-70
2021/11/15 12:12:19;;;;;;;27.55;18.35;;;11.80;99.50;;;;;;5060460;28;20052;-68
2021/11/15 12:14:45;;;;;;;28.85;18.33;;;11.90;99.90;;;;;;5030669;28;20049;-69
2021/11/15 12:17:17;;;;;;;27.58;18.25;;;11.90;99.30;;;;;;5037868;28;20053;-70
2021/11/15 12:19:56;;;;;;;27.77;18.95;;;11.80;99.20;;;;;;5039807;28;20412;-69
2021/11/15 12:22:43;;;;;;;24.65;18.35;;;11.90;99.20;;;;;;5049351;28;20342;-68
2021/11/15 12:25:16;;;;;;;28.98;18.27;;;11.90;99.70;;;;;;5047580;28;20045;-69
2021/11/15 12:27:45;;;;;;;26.50;17.42;;;11.90;99.70;;;;;;5049364;28;20056;-73
2021/11/15 12:30:24;;;;;;;28.42;19.48;;;11.90;98.20;;;;;;5047305;28;20049;-68
2021/11/15 12:33:15;;;;;;;28.80;18.70;;;11.90;99.50;;;;;;5049383;28;20049;-68
2021/11/15 12:36:05;;;;;;;27.67;18.27;;;11.90;98.50;;;;;;5049197;28;20443;-69
2021/11/15 12:38:41;;;;;;;26.88;18.08;;;11.90;98.40;;;;;;5048118;28;20102;-66